createdAt,value
2019-01-22T00:00:14.093Z,22.91
2019-01-22T00:02:15.709Z,22.66
2019-01-22T00:04:17.327Z,22.81
2019-01-22T00:06:18.952Z,22.65
2019-01-22T00:08:20.571Z,22.73
2019-01-22T00:10:22.216Z,22.57
2019-01-22T00:12:23.846Z,22.42
2019-01-22T00:14:25.478Z,22.28
2019-01-22T00:16:27.087Z,22.16
2019-01-22T00:18:28.688Z,22.08
2019-01-22T00:20:30.301Z,22.01
2019-01-22T00:22:31.934Z,21.90
2019-01-22T00:24:33.556Z,21.57
2019-01-22T00:26:35.252Z,21.71
2019-01-22T00:28:36.906Z,21.65
2019-01-22T00:30:38.506Z,21.55
2019-01-22T00:32:40.109Z,21.46
2019-01-22T00:34:41.772Z,21.38
2019-01-22T00:36:43.378Z,21.30
2019-01-22T00:38:44.985Z,21.23
2019-01-22T00:40:46.608Z,21.15
2019-01-22T00:42:48.217Z,21.09
2019-01-22T00:44:49.844Z,21.03
2019-01-22T00:46:51.526Z,20.95
2019-01-22T00:48:53.134Z,20.89
2019-01-22T00:50:54.727Z,20.85
2019-01-22T00:52:56.348Z,20.78
2019-01-22T00:54:57.975Z,20.72
2019-01-22T00:56:59.585Z,20.68
2019-01-22T00:59:01.233Z,20.64
2019-01-22T01:01:02.843Z,20.61
2019-01-22T01:03:04.464Z,20.56
2019-01-22T01:05:06.113Z,20.53
2019-01-22T01:07:07.729Z,20.51
2019-01-22T01:09:09.338Z,20.46
2019-01-22T01:11:10.945Z,20.41
2019-01-22T01:13:12.544Z,20.37
2019-01-22T01:15:14.162Z,20.34
2019-01-22T01:17:15.815Z,20.30
2019-01-22T01:19:17.434Z,20.27
2019-01-22T01:21:19.068Z,20.23
2019-01-22T01:23:20.679Z,20.18
2019-01-22T01:25:22.285Z,20.17
2019-01-22T01:27:23.884Z,20.15
2019-01-22T01:29:25.557Z,20.13
2019-01-22T01:31:27.171Z,20.11
2019-01-22T01:33:28.773Z,20.17
2019-01-22T01:35:30.392Z,20.23
2019-01-22T01:37:32.011Z,20.31
2019-01-22T01:39:33.669Z,20.38
2019-01-22T01:41:35.324Z,20.43
2019-01-22T01:43:36.929Z,20.49
2019-01-22T01:45:38.572Z,20.55
2019-01-22T01:47:40.188Z,20.65
2019-01-22T01:49:41.833Z,20.67
2019-01-22T01:51:43.431Z,20.68
2019-01-22T01:53:45.034Z,20.72
2019-01-22T01:55:46.655Z,20.74
2019-01-22T01:57:48.283Z,20.73
2019-01-22T01:59:49.942Z,20.74
2019-01-22T02:01:51.602Z,20.75
2019-01-22T02:03:53.206Z,20.75
2019-01-22T02:05:54.810Z,20.74
2019-01-22T02:07:56.437Z,20.73
2019-01-22T02:09:58.081Z,20.73
2019-01-22T02:11:59.686Z,20.73
2019-01-22T02:14:01.285Z,20.72
2019-01-22T02:16:02.887Z,20.73
2019-01-22T02:18:04.551Z,20.74
2019-01-22T02:20:06.177Z,20.75
2019-01-22T02:22:07.793Z,20.73
2019-01-22T02:24:09.438Z,20.73
2019-01-22T02:26:11.060Z,20.73
2019-01-22T02:28:12.726Z,20.71
2019-01-22T02:30:14.362Z,20.70
2019-01-22T02:32:15.976Z,20.68
2019-01-22T02:34:17.581Z,20.71
2019-01-22T02:36:19.229Z,20.71
2019-01-22T02:38:20.841Z,20.70
2019-01-22T02:40:22.465Z,20.70
2019-01-22T02:42:24.108Z,20.70
2019-01-22T02:44:25.766Z,20.71
2019-01-22T02:46:27.423Z,20.73
2019-01-22T02:48:29.029Z,20.71
2019-01-22T02:50:30.638Z,20.69
2019-01-22T02:52:32.257Z,20.65
2019-01-22T02:54:33.914Z,20.61
2019-01-22T02:56:35.536Z,20.59
2019-01-22T02:58:37.151Z,20.64
2019-01-22T03:00:38.795Z,20.69
2019-01-22T03:02:40.402Z,20.56
2019-01-22T03:04:42.056Z,20.53
2019-01-22T03:06:43.669Z,20.50
2019-01-22T03:08:45.302Z,20.48
2019-01-22T03:10:46.905Z,20.46
2019-01-22T03:12:48.506Z,20.48
2019-01-22T03:14:50.159Z,20.51
2019-01-22T03:16:51.778Z,20.51
2019-01-22T03:18:53.767Z,20.50
2019-01-22T03:20:55.408Z,20.51
2019-01-22T03:22:57.012Z,20.51
2019-01-22T03:24:58.626Z,20.52
2019-01-22T03:27:00.275Z,20.51
2019-01-22T03:29:01.929Z,20.52
2019-01-22T03:31:03.538Z,20.54
2019-01-22T03:33:05.206Z,20.56
2019-01-22T03:35:06.832Z,20.55
2019-01-22T03:37:08.436Z,20.58
2019-01-22T03:39:10.058Z,20.63
2019-01-22T03:41:11.672Z,20.65
2019-01-22T03:43:13.340Z,20.65
2019-01-22T03:45:14.992Z,20.65
2019-01-22T03:47:16.594Z,20.62
2019-01-22T03:49:18.208Z,20.62
2019-01-22T03:51:19.853Z,20.62
2019-01-22T03:53:21.484Z,20.59
2019-01-22T03:55:23.090Z,20.35
2019-01-22T03:57:24.717Z,20.53
2019-01-22T03:59:26.323Z,20.52
2019-01-22T04:01:27.926Z,20.47
2019-01-22T04:03:29.526Z,20.46
2019-01-22T04:05:31.129Z,20.45
2019-01-22T04:07:32.741Z,20.44
2019-01-22T04:09:34.377Z,20.42
2019-01-22T04:11:35.987Z,20.41
2019-01-22T04:13:37.596Z,20.40
2019-01-22T04:15:39.221Z,20.36
2019-01-22T04:17:40.857Z,20.29
2019-01-22T04:19:42.490Z,20.24
2019-01-22T04:21:44.165Z,20.18
2019-01-22T04:23:45.763Z,20.16
2019-01-22T04:25:47.384Z,20.12
2019-01-22T04:27:48.991Z,20.08
2019-01-22T04:29:50.634Z,20.08
2019-01-22T04:31:52.244Z,20.08
2019-01-22T04:33:53.836Z,20.08
2019-01-22T04:35:55.490Z,20.11
2019-01-22T04:37:57.094Z,20.16
2019-01-22T04:39:58.689Z,20.23
2019-01-22T04:42:00.336Z,20.29
2019-01-22T04:44:01.952Z,20.30
2019-01-22T04:46:03.546Z,20.33
2019-01-22T04:48:05.173Z,20.41
2019-01-22T04:50:06.827Z,20.47
2019-01-22T04:52:08.435Z,20.54
2019-01-22T04:54:10.288Z,20.58
2019-01-22T04:56:11.692Z,20.62
2019-01-22T04:58:13.294Z,20.65
2019-01-22T05:00:14.948Z,20.68
2019-01-22T05:02:16.563Z,20.73
2019-01-22T05:04:18.155Z,20.72
2019-01-22T05:06:19.749Z,20.71
2019-01-22T05:08:21.353Z,20.67
2019-01-22T05:10:22.944Z,20.60
2019-01-22T05:12:24.550Z,20.60
2019-01-22T05:14:26.154Z,20.58
2019-01-22T05:16:27.763Z,20.53
2019-01-22T05:18:29.369Z,20.46
2019-01-22T05:20:30.974Z,20.41
2019-01-22T05:22:32.570Z,20.34
2019-01-22T05:24:34.227Z,20.25
2019-01-22T05:26:35.841Z,20.19
2019-01-22T05:28:37.445Z,20.17
2019-01-22T05:30:39.110Z,20.11
2019-01-22T05:32:40.727Z,20.07
2019-01-22T05:34:42.331Z,20.03
2019-01-22T05:36:43.983Z,20.00
2019-01-22T05:38:45.639Z,19.97
2019-01-22T05:40:47.257Z,19.93
2019-01-22T05:42:48.885Z,19.91
2019-01-22T05:44:50.485Z,19.89
2019-01-22T05:46:52.090Z,19.86
2019-01-22T05:48:53.733Z,19.86
2019-01-22T05:50:55.363Z,19.88
2019-01-22T05:52:56.951Z,19.92
2019-01-22T05:54:58.556Z,20.00
2019-01-22T05:57:00.163Z,20.05
2019-01-22T05:59:01.797Z,20.09
2019-01-22T06:01:03.410Z,20.17
2019-01-22T06:03:05.009Z,20.26
2019-01-22T06:05:06.592Z,20.35
2019-01-22T06:07:08.186Z,20.45
2019-01-22T06:09:09.781Z,20.57
2019-01-22T06:11:11.426Z,20.70
2019-01-22T06:13:13.013Z,20.80
2019-01-22T06:15:14.596Z,20.92
2019-01-22T06:17:16.197Z,20.98
2019-01-22T06:19:17.804Z,21.03
2019-01-22T06:21:19.447Z,21.07
2019-01-22T06:23:21.056Z,21.05
2019-01-22T06:25:22.649Z,21.02
2019-01-22T06:27:24.430Z,21.04
2019-01-22T06:29:25.954Z,20.99
2019-01-22T06:31:27.550Z,20.87
2019-01-22T06:33:29.169Z,20.78
2019-01-22T06:35:30.771Z,20.68
2019-01-22T06:37:32.370Z,20.62
2019-01-22T06:39:33.980Z,20.56
2019-01-22T06:41:35.568Z,20.51
2019-01-22T06:43:37.176Z,20.46
2019-01-22T06:45:38.778Z,20.45
2019-01-22T06:47:40.373Z,20.44
2019-01-22T06:49:41.970Z,20.35
2019-01-22T06:51:43.577Z,20.26
2019-01-22T06:53:45.231Z,20.17
2019-01-22T06:55:46.830Z,20.10
2019-01-22T06:57:48.416Z,20.05
2019-01-22T06:59:50.085Z,19.90
2019-01-22T07:01:51.671Z,19.99
2019-01-22T07:03:53.269Z,19.88
2019-01-22T07:05:54.900Z,19.82
2019-01-22T07:07:56.498Z,19.75
2019-01-22T07:10:00.333Z,19.65
2019-01-22T07:11:59.782Z,19.60
2019-01-22T07:14:01.368Z,19.56
2019-01-22T07:16:02.990Z,19.57
2019-01-22T07:18:04.590Z,19.64
2019-01-22T07:20:06.195Z,19.75
2019-01-22T07:22:07.817Z,19.87
2019-01-22T07:24:09.425Z,19.98
2019-01-22T07:26:11.045Z,19.87
2019-01-22T07:28:12.686Z,20.21
2019-01-22T07:30:14.295Z,20.36
2019-01-22T07:32:15.904Z,20.51
2019-01-22T07:34:17.540Z,20.67
2019-01-22T07:36:19.153Z,20.84
2019-01-22T07:38:20.763Z,21.08
2019-01-22T07:40:22.374Z,21.15
2019-01-22T07:42:24.010Z,21.22
2019-01-22T07:44:25.606Z,21.26
2019-01-22T07:46:27.257Z,21.22
2019-01-22T07:48:28.877Z,21.20
2019-01-22T07:50:30.474Z,21.12
2019-01-22T07:52:32.065Z,21.02
2019-01-22T07:54:33.702Z,20.98
2019-01-22T07:56:35.304Z,20.95
2019-01-22T07:58:36.911Z,21.21
2019-01-22T08:00:38.548Z,20.89
2019-01-22T08:02:40.146Z,20.86
2019-01-22T08:04:41.728Z,20.78
2019-01-22T08:06:44.151Z,20.53
2019-01-22T08:08:45.745Z,20.20
2019-01-22T08:10:47.338Z,20.10
2019-01-22T08:12:48.933Z,19.90
2019-01-22T08:14:50.587Z,19.94
2019-01-22T08:16:52.172Z,19.87
2019-01-22T08:18:53.766Z,19.78
2019-01-22T08:20:55.365Z,19.69
2019-01-22T08:22:56.964Z,19.61
2019-01-22T08:25:00.783Z,19.56
2019-01-22T08:27:00.227Z,19.49
2019-01-22T08:29:01.849Z,19.43
2019-01-22T08:31:03.456Z,19.39
2019-01-22T08:33:05.044Z,19.36
2019-01-22T08:35:06.732Z,19.35
2019-01-22T08:37:08.339Z,19.33
2019-01-22T08:39:09.937Z,19.40
2019-01-22T08:41:11.588Z,19.46
2019-01-22T08:43:13.186Z,19.48
2019-01-22T08:45:14.788Z,19.53
2019-01-22T08:47:16.418Z,19.64
2019-01-22T08:49:18.057Z,19.73
2019-01-22T08:51:19.654Z,19.84
2019-01-22T08:53:21.255Z,19.94
2019-01-22T08:55:22.904Z,20.11
2019-01-22T08:57:24.505Z,20.29
2019-01-22T08:59:26.092Z,20.44
2019-01-22T09:01:27.730Z,20.61
2019-01-22T09:03:29.325Z,20.73
2019-01-22T09:05:30.928Z,20.81
2019-01-22T09:07:32.566Z,20.87
2019-01-22T09:09:34.161Z,20.91
2019-01-22T09:11:35.757Z,20.91
2019-01-22T09:13:37.398Z,20.88
2019-01-22T09:15:39.007Z,20.85
2019-01-22T09:17:40.617Z,20.05
2019-01-22T09:19:42.245Z,17.69
2019-01-22T09:21:43.855Z,19.37
2019-01-22T09:23:45.462Z,20.45
2019-01-22T09:25:47.082Z,20.90
2019-01-22T09:27:48.693Z,20.99
2019-01-22T09:29:50.289Z,21.08
2019-01-22T09:31:51.872Z,21.07
2019-01-22T09:33:53.466Z,21.07
2019-01-22T09:35:55.102Z,21.24
2019-01-22T09:37:56.707Z,21.20
2019-01-22T09:39:58.308Z,21.21
2019-01-22T09:41:59.902Z,21.17
2019-01-22T09:44:01.493Z,21.24
2019-01-22T09:46:03.090Z,21.33
2019-01-22T09:48:04.719Z,21.33
2019-01-22T09:50:06.353Z,21.44
2019-01-22T09:52:07.963Z,21.46
2019-01-22T09:54:09.572Z,21.50
2019-01-22T09:56:11.201Z,21.54
2019-01-22T09:58:12.811Z,21.64
2019-01-22T10:00:14.414Z,21.60
2019-01-22T10:02:16.009Z,21.65
2019-01-22T10:04:17.602Z,21.63
2019-01-22T10:06:19.208Z,21.63
2019-01-22T10:08:20.830Z,21.65
2019-01-22T10:10:22.447Z,21.57
2019-01-22T10:12:24.104Z,21.76
2019-01-22T10:14:25.712Z,21.74
2019-01-22T10:16:27.295Z,21.80
2019-01-22T10:18:28.937Z,21.32
2019-01-22T10:20:30.530Z,21.73
2019-01-22T10:22:32.131Z,21.80
2019-01-22T10:24:33.779Z,21.87
2019-01-22T10:26:35.364Z,21.25
2019-01-22T10:28:38.047Z,21.26
2019-01-22T10:30:38.652Z,21.56
2019-01-22T10:32:40.264Z,21.73
2019-01-22T10:34:41.862Z,21.92
2019-01-22T10:36:43.460Z,22.32
2019-01-22T10:38:45.053Z,22.34
2019-01-22T10:40:46.674Z,22.36
2019-01-22T10:42:48.270Z,22.18
2019-01-22T10:44:49.883Z,21.75
2019-01-22T10:46:51.515Z,21.74
2019-01-22T10:48:53.123Z,21.64
2019-01-22T10:50:54.722Z,21.58
2019-01-22T10:52:56.376Z,21.52
2019-01-22T10:54:57.963Z,21.48
2019-01-22T10:56:59.568Z,21.36
2019-01-22T10:59:01.216Z,21.26
2019-01-22T11:01:02.809Z,21.16
2019-01-22T11:03:04.395Z,21.11
2019-01-22T11:05:06.020Z,21.07
2019-01-22T11:07:07.608Z,21.05
2019-01-22T11:09:09.192Z,21.03
2019-01-22T11:11:10.814Z,21.00
2019-01-22T11:13:12.409Z,21.01
2019-01-22T11:15:14.020Z,21.01
2019-01-22T11:17:15.600Z,21.01
2019-01-22T11:19:17.203Z,21.03
2019-01-22T11:21:18.828Z,21.06
2019-01-22T11:23:20.432Z,21.09
2019-01-22T11:25:22.031Z,21.13
2019-01-22T11:27:23.648Z,21.16
2019-01-22T11:29:25.253Z,21.19
2019-01-22T11:31:26.878Z,21.27
2019-01-22T11:33:28.506Z,21.27
2019-01-22T11:35:30.120Z,21.29
2019-01-22T11:37:31.735Z,21.25
2019-01-22T11:39:33.340Z,21.26
2019-01-22T11:41:34.939Z,21.24
2019-01-22T11:43:36.524Z,21.20
2019-01-22T11:45:38.141Z,21.18
2019-01-22T11:47:39.747Z,21.14
2019-01-22T11:49:41.360Z,21.10
2019-01-22T11:51:42.944Z,21.07
2019-01-22T11:53:44.796Z,21.15
2019-01-22T11:55:50.500Z,21.17
2019-01-22T11:57:48.096Z,21.15
2019-01-22T11:59:49.704Z,21.14
2019-01-22T12:01:51.293Z,21.10
2019-01-22T12:03:52.885Z,21.10
2019-01-22T12:05:54.537Z,21.08
2019-01-22T12:07:56.148Z,21.06
2019-01-22T12:09:57.760Z,21.05
2019-01-22T12:11:59.371Z,21.04
2019-01-22T12:14:01.023Z,21.01
2019-01-22T12:16:02.693Z,20.98
2019-01-22T12:18:04.400Z,21.00
2019-01-22T12:20:06.130Z,21.12
2019-01-22T12:22:07.782Z,21.07
2019-01-22T12:24:09.387Z,20.85
2019-01-22T12:26:10.992Z,20.65
2019-01-22T12:28:13.638Z,20.48
2019-01-22T12:30:15.273Z,20.57
2019-01-22T12:32:16.867Z,20.63
2019-01-22T12:34:18.461Z,20.64
2019-01-22T12:36:20.072Z,20.67
2019-01-22T12:38:21.670Z,20.71
2019-01-22T12:40:23.280Z,20.78
2019-01-22T12:42:24.905Z,20.86
2019-01-22T12:44:26.516Z,20.94
2019-01-22T12:46:28.118Z,21.01
2019-01-22T12:48:29.754Z,21.08
2019-01-22T12:50:32.412Z,21.15
2019-01-22T12:52:34.018Z,21.19
2019-01-22T12:54:35.653Z,21.22
2019-01-22T12:56:37.336Z,21.27
2019-01-22T12:58:38.934Z,21.29
2019-01-22T13:00:40.558Z,21.32
2019-01-22T13:02:42.213Z,21.32
2019-01-22T13:04:43.824Z,21.30
2019-01-22T13:06:45.422Z,21.30
2019-01-22T13:08:47.073Z,21.31
2019-01-22T13:10:48.670Z,21.29
2019-01-22T13:12:50.320Z,21.25
2019-01-22T13:14:51.945Z,21.20
2019-01-22T13:16:53.572Z,21.16
2019-01-22T13:18:55.218Z,21.14
2019-01-22T13:20:56.858Z,21.10
2019-01-22T13:22:58.469Z,21.05
2019-01-22T13:25:00.149Z,21.01
2019-01-22T13:27:01.752Z,20.95
2019-01-22T13:29:03.391Z,20.92
2019-01-22T13:31:04.993Z,20.88
2019-01-22T13:33:06.920Z,20.82
2019-01-22T13:35:08.545Z,20.78
2019-01-22T13:37:10.177Z,20.73
2019-01-22T13:39:11.875Z,20.71
2019-01-22T13:41:13.504Z,20.68
2019-01-22T13:43:15.136Z,20.66
2019-01-22T13:45:16.744Z,20.61
2019-01-22T13:47:18.341Z,20.59
2019-01-22T13:49:19.948Z,20.56
2019-01-22T13:51:21.565Z,20.54
2019-01-22T13:53:23.152Z,20.50
2019-01-22T13:55:24.745Z,20.50
2019-01-22T13:57:26.342Z,20.50
2019-01-22T13:59:27.984Z,20.50
2019-01-22T14:01:29.587Z,20.53
2019-01-22T14:03:31.199Z,20.55
2019-01-22T14:05:32.802Z,20.55
2019-01-22T14:07:34.407Z,20.51
2019-01-22T14:09:35.996Z,20.42
2019-01-22T14:11:37.618Z,20.33
2019-01-22T14:13:39.231Z,20.24
2019-01-22T14:15:40.820Z,20.15
2019-01-22T14:17:42.452Z,20.12
2019-01-22T14:19:44.036Z,20.17
2019-01-22T14:21:45.631Z,20.25
2019-01-22T14:23:47.269Z,20.34
2019-01-22T14:25:48.897Z,20.45
2019-01-22T14:27:50.480Z,20.55
2019-01-22T14:29:52.064Z,20.69
2019-01-22T14:31:53.706Z,20.82
2019-01-22T14:33:55.306Z,20.94
2019-01-22T14:35:56.924Z,21.02
2019-01-22T14:37:58.613Z,21.14
2019-01-22T14:40:00.223Z,21.22
2019-01-22T14:42:01.821Z,21.32
2019-01-22T14:44:03.471Z,21.41
2019-01-22T14:46:05.126Z,21.39
2019-01-22T14:48:06.771Z,21.34
2019-01-22T14:50:08.416Z,21.31
2019-01-22T14:52:10.018Z,21.34
2019-01-22T14:54:11.629Z,21.31
2019-01-22T14:56:13.263Z,21.29
2019-01-22T14:58:14.862Z,21.24
2019-01-22T15:00:16.515Z,21.23
2019-01-22T15:02:18.119Z,21.19
2019-01-22T15:04:19.723Z,21.16
2019-01-22T15:06:21.346Z,21.12
2019-01-22T15:08:23.155Z,21.06
2019-01-22T15:10:24.671Z,21.02
2019-01-22T15:12:26.271Z,21.00
2019-01-22T15:14:27.909Z,20.95
2019-01-22T15:16:29.523Z,20.90
2019-01-22T15:18:31.132Z,20.81
2019-01-22T15:20:32.767Z,20.77
2019-01-22T15:22:34.390Z,20.73
2019-01-22T15:24:36.044Z,20.70
2019-01-22T15:26:39.517Z,20.62
2019-01-22T15:28:39.420Z,20.59
2019-01-22T15:30:41.042Z,20.55
2019-01-22T15:32:42.682Z,20.54
2019-01-22T15:34:44.311Z,20.50
2019-01-22T15:36:45.913Z,20.48
2019-01-22T15:38:47.524Z,20.46
2019-01-22T15:40:49.122Z,20.45
2019-01-22T15:42:50.717Z,20.45
2019-01-22T15:44:52.348Z,20.44
2019-01-22T15:46:53.946Z,20.44
2019-01-22T15:48:55.550Z,20.42
2019-01-22T15:50:57.146Z,20.44
2019-01-22T15:52:58.793Z,20.48
2019-01-22T15:55:00.435Z,20.53
2019-01-22T15:57:02.224Z,20.59
2019-01-22T15:59:03.885Z,20.64
2019-01-22T16:01:05.496Z,20.70
2019-01-22T16:03:07.138Z,20.76
2019-01-22T16:05:08.754Z,20.82
2019-01-22T16:07:10.429Z,20.87
2019-01-22T16:09:12.070Z,20.89
2019-01-22T16:11:13.683Z,20.94
2019-01-22T16:13:15.302Z,20.97
2019-01-22T16:15:16.925Z,21.01
2019-01-22T16:17:18.532Z,21.03
2019-01-22T16:19:23.643Z,21.06
2019-01-22T16:21:25.251Z,21.06
2019-01-22T16:23:26.920Z,21.06
2019-01-22T16:25:28.549Z,21.04
2019-01-22T16:27:30.149Z,21.04
2019-01-22T16:29:31.752Z,21.03
2019-01-22T16:31:33.389Z,21.02
2019-01-22T16:33:34.988Z,21.01
2019-01-22T16:35:36.629Z,20.98
2019-01-22T16:37:38.240Z,20.90
2019-01-22T16:39:39.834Z,20.92
2019-01-22T16:41:41.435Z,20.89
2019-01-22T16:43:43.073Z,20.85
2019-01-22T16:45:44.679Z,20.82
2019-01-22T16:47:46.285Z,20.78
2019-01-22T16:49:47.911Z,20.74
2019-01-22T16:51:49.506Z,20.70
2019-01-22T16:53:54.779Z,20.64
2019-01-22T16:55:52.767Z,20.60
2019-01-22T16:57:54.361Z,20.56
2019-01-22T16:59:55.959Z,20.56
2019-01-22T17:01:57.571Z,20.51
2019-01-22T17:03:59.229Z,20.51
2019-01-22T17:06:00.883Z,20.49
2019-01-22T17:08:02.542Z,20.48
2019-01-22T17:10:04.177Z,20.45
2019-01-22T17:12:05.770Z,20.45
2019-01-22T17:14:07.366Z,20.45
2019-01-22T17:16:08.975Z,20.41
2019-01-22T17:18:10.573Z,20.45
2019-01-22T17:20:12.174Z,20.46
2019-01-22T17:22:13.793Z,20.48
2019-01-22T17:24:15.413Z,20.50
2019-01-22T17:26:17.009Z,20.56
2019-01-22T17:28:18.623Z,20.61
2019-01-22T17:30:20.280Z,20.64
2019-01-22T17:32:21.875Z,20.71
2019-01-22T17:34:23.480Z,20.76
2019-01-22T17:36:25.097Z,20.81
2019-01-22T17:38:26.719Z,20.88
2019-01-22T17:40:28.326Z,20.97
2019-01-22T17:42:29.935Z,21.04
2019-01-22T17:44:31.549Z,21.08
2019-01-22T17:46:33.185Z,21.13
2019-01-22T17:48:34.865Z,21.12
2019-01-22T17:50:36.494Z,21.13
2019-01-22T17:52:38.129Z,21.10
2019-01-22T17:54:39.725Z,21.07
2019-01-22T17:56:41.318Z,21.05
2019-01-22T17:58:42.913Z,21.02
2019-01-22T18:00:44.528Z,20.98
2019-01-22T18:02:46.140Z,20.91
2019-01-22T18:04:47.774Z,20.87
2019-01-22T18:06:49.388Z,20.82
2019-01-22T18:08:51.138Z,20.78
2019-01-22T18:10:52.734Z,20.75
2019-01-22T18:12:54.334Z,20.71
2019-01-22T18:14:55.961Z,20.66
2019-01-22T18:16:57.552Z,20.61
2019-01-22T18:18:59.160Z,20.59
2019-01-22T18:21:00.786Z,20.57
2019-01-22T18:23:02.382Z,20.57
2019-01-22T18:25:04.034Z,20.54
2019-01-22T18:27:05.647Z,20.51
2019-01-22T18:29:07.346Z,20.48
2019-01-22T18:31:08.964Z,20.48
2019-01-22T18:33:10.569Z,20.45
2019-01-22T18:35:12.192Z,20.46
2019-01-22T18:37:13.787Z,20.47
2019-01-22T18:39:15.386Z,20.47
2019-01-22T18:41:16.992Z,20.51
2019-01-22T18:43:18.601Z,20.53
2019-01-22T18:45:20.194Z,20.59
2019-01-22T18:47:21.817Z,20.67
2019-01-22T18:49:23.437Z,20.72
2019-01-22T18:51:25.052Z,20.81
2019-01-22T18:53:26.689Z,20.89
2019-01-22T18:55:28.285Z,20.99
2019-01-22T18:57:29.868Z,21.06
2019-01-22T18:59:31.476Z,21.10
2019-01-22T19:01:33.070Z,21.10
2019-01-22T19:03:34.679Z,21.01
2019-01-22T19:05:36.341Z,20.90
2019-01-22T19:07:38.011Z,20.83
2019-01-22T19:09:39.650Z,20.59
2019-01-22T19:11:41.292Z,20.62
2019-01-22T19:13:42.889Z,20.53
2019-01-22T19:15:44.515Z,20.48
2019-01-22T19:17:46.129Z,20.45
2019-01-22T19:19:47.739Z,20.40
2019-01-22T19:21:49.387Z,20.38
2019-01-22T19:23:50.975Z,20.37
2019-01-22T19:25:52.584Z,20.34
2019-01-22T19:27:54.210Z,20.33
2019-01-22T19:29:55.815Z,20.34
2019-01-22T19:31:57.451Z,20.35
2019-01-22T19:33:59.059Z,20.37
2019-01-22T19:36:01.340Z,20.37
2019-01-22T19:38:02.333Z,20.38
2019-01-22T19:40:03.983Z,20.42
2019-01-22T19:42:05.597Z,20.42
2019-01-22T19:44:07.204Z,20.48
2019-01-22T19:46:08.801Z,20.54
2019-01-22T19:48:10.406Z,20.58
2019-01-22T19:50:12.006Z,20.59
2019-01-22T19:52:13.630Z,20.62
2019-01-22T19:54:15.231Z,20.68
2019-01-22T19:56:16.829Z,20.74
2019-01-22T19:58:18.429Z,20.81
2019-01-22T20:00:20.021Z,20.86
2019-01-22T20:02:21.617Z,20.94
2019-01-22T20:04:23.272Z,20.99
2019-01-22T20:06:24.885Z,21.02
2019-01-22T20:08:26.483Z,21.04
2019-01-22T20:10:28.121Z,21.03
2019-01-22T20:12:29.731Z,21.06
2019-01-22T20:14:31.316Z,21.04
2019-01-22T20:16:32.914Z,21.02
2019-01-22T20:18:34.528Z,21.00
2019-01-22T20:20:36.121Z,20.94
2019-01-22T20:22:37.747Z,20.91
2019-01-22T20:24:39.351Z,20.87
2019-01-22T20:26:40.964Z,20.81
2019-01-22T20:28:42.556Z,20.77
2019-01-22T20:30:48.284Z,20.74
2019-01-22T20:32:45.834Z,20.71
2019-01-22T20:34:47.419Z,20.67
2019-01-22T20:36:49.027Z,20.61
2019-01-22T20:38:50.635Z,20.57
2019-01-22T20:40:52.234Z,20.55
2019-01-22T20:42:53.822Z,20.53
2019-01-22T20:44:55.422Z,20.49
2019-01-22T20:46:57.004Z,20.47
2019-01-22T20:48:58.641Z,20.45
2019-01-22T20:51:00.227Z,20.44
2019-01-22T20:53:01.864Z,20.43
2019-01-22T20:55:03.509Z,20.43
2019-01-22T20:57:05.092Z,20.44
2019-01-22T20:59:06.680Z,20.43
2019-01-22T21:01:08.291Z,20.46
2019-01-22T21:03:09.894Z,20.50
2019-01-22T21:05:11.494Z,20.54
2019-01-22T21:07:13.103Z,20.61
2019-01-22T21:09:14.756Z,20.64
2019-01-22T21:11:16.344Z,20.63
2019-01-22T21:13:17.928Z,20.64
2019-01-22T21:15:19.556Z,20.62
2019-01-22T21:17:21.172Z,20.61
2019-01-22T21:19:22.770Z,20.58
2019-01-22T21:21:24.384Z,20.55
2019-01-22T21:23:25.969Z,20.52
2019-01-22T21:25:27.583Z,20.50
2019-01-22T21:27:29.208Z,20.49
2019-01-22T21:29:30.792Z,20.47
2019-01-22T21:31:32.395Z,20.47
2019-01-22T21:33:33.989Z,20.45
2019-01-22T21:35:35.585Z,20.43
2019-01-22T21:37:37.210Z,20.40
2019-01-22T21:39:38.810Z,20.38
2019-01-22T21:41:40.406Z,20.38
2019-01-22T21:43:42.028Z,20.36
2019-01-22T21:45:43.625Z,20.35
2019-01-22T21:47:45.222Z,20.32
2019-01-22T21:49:46.846Z,20.31
2019-01-22T21:51:48.445Z,20.31
2019-01-22T21:53:50.077Z,20.41
2019-01-22T21:55:51.683Z,20.94
2019-01-22T21:57:53.285Z,21.39
2019-01-22T21:59:54.910Z,21.40
2019-01-22T22:01:56.579Z,21.63
2019-01-22T22:03:58.285Z,21.71
2019-01-22T22:05:59.933Z,21.70
2019-01-22T22:08:01.531Z,21.65
2019-01-22T22:10:03.126Z,21.66
2019-01-22T22:12:04.780Z,21.73
2019-01-22T22:14:06.385Z,21.85
2019-01-22T22:16:08.020Z,21.72
2019-01-22T22:18:09.627Z,21.75
2019-01-22T22:20:11.215Z,22.11
2019-01-22T22:22:12.810Z,21.98
2019-01-22T22:24:14.415Z,21.81
2019-01-22T22:26:16.019Z,21.87
2019-01-22T22:28:17.627Z,21.84
2019-01-22T22:30:19.231Z,21.20
2019-01-22T22:32:20.829Z,21.51
2019-01-22T22:34:22.458Z,21.69
2019-01-22T22:36:24.068Z,21.71
2019-01-22T22:38:25.670Z,21.58
2019-01-22T22:40:27.299Z,21.52
2019-01-22T22:42:28.915Z,21.55
2019-01-22T22:44:30.626Z,21.58
2019-01-22T22:46:32.247Z,21.69
2019-01-22T22:48:33.855Z,21.76
2019-01-22T22:50:35.454Z,21.63
2019-01-22T22:52:37.062Z,21.55
2019-01-22T22:54:38.659Z,21.52
2019-01-22T22:56:40.316Z,21.74
2019-01-22T22:58:41.927Z,21.76
2019-01-22T23:00:43.531Z,21.64
2019-01-22T23:02:45.154Z,21.25
2019-01-22T23:04:46.753Z,21.29
2019-01-22T23:06:48.364Z,21.38
2019-01-22T23:08:49.971Z,21.70
2019-01-22T23:10:51.619Z,21.78
2019-01-22T23:12:53.217Z,21.61
2019-01-22T23:14:54.817Z,21.75
2019-01-22T23:16:56.413Z,21.67
2019-01-22T23:18:58.024Z,21.66
2019-01-22T23:20:59.618Z,21.63
2019-01-22T23:23:01.256Z,21.57
2019-01-22T23:25:02.936Z,21.59
2019-01-22T23:27:04.578Z,21.61
2019-01-22T23:29:06.173Z,21.73
2019-01-22T23:31:07.770Z,21.36
2019-01-22T23:33:09.393Z,21.26
2019-01-22T23:35:11.004Z,21.38
2019-01-22T23:37:12.597Z,21.51
2019-01-22T23:39:14.208Z,21.57
2019-01-22T23:41:15.864Z,21.56
2019-01-22T23:43:17.463Z,21.59
2019-01-22T23:45:19.061Z,21.63
2019-01-22T23:47:20.643Z,21.64
2019-01-22T23:49:22.260Z,21.72
2019-01-22T23:51:23.875Z,21.68
2019-01-22T23:53:25.523Z,21.67
2019-01-22T23:55:27.121Z,21.68
2019-01-22T23:57:28.729Z,21.67
2019-01-22T23:59:30.331Z,21.66
